Time;durP1;ratioP1;P1;durP2;ratioP2;P2;SDS_P1;SDS_P2;PMS_P1;PMS_P2;Temp;Humidity;BMP_temperature;BMP_pressure;BME280_temperature;BME280_humidity;BME280_pressure;Samples;Min_cycle;Max_cycle;Signal;HPM_P1;HPM_P2
2020/12/25 00:00:18;;;;;;;9.13;3.75;;;5.50;97.20;;;;;;5033889;28;20615;-88
2020/12/25 00:02:44;;;;;;;7.07;2.75;;;5.50;97.20;;;;;;5015583;28;20120;-88
2020/12/25 00:05:09;;;;;;;9.80;3.42;;;5.50;97.20;;;;;;5009507;28;20396;-87
2020/12/25 00:08:10;;;;;;;7.97;2.85;;;5.50;97.10;;;;;;4992116;28;20037;-89
2020/12/25 00:10:36;;;;;;;7.97;2.90;;;5.50;97.10;;;;;;4999800;28;20054;-88
2020/12/25 00:13:08;;;;;;;9.05;3.13;;;5.40;97.00;;;;;;4990842;28;20033;-88
2020/12/25 00:15:33;;;;;;;7.13;2.58;;;5.50;97.00;;;;;;5020317;28;20083;-88
2020/12/25 00:17:59;;;;;;;6.50;2.30;;;5.40;97.00;;;;;;5032921;28;20116;-88
2020/12/25 00:20:25;;;;;;;9.68;2.97;;;5.40;97.00;;;;;;5018867;28;20037;-88
2020/12/25 00:22:51;;;;;;;9.48;2.47;;;5.30;96.90;;;;;;5023252;28;20037;-88
2020/12/25 00:25:16;;;;;;;8.55;2.45;;;5.30;96.90;;;;;;5013840;28;20044;-88
2020/12/25 00:27:43;;;;;;;7.47;3.00;;;5.30;97.00;;;;;;5049716;28;20125;-88
2020/12/25 00:30:08;;;;;;;7.47;2.30;;;5.30;97.00;;;;;;5033862;28;20033;-88
2020/12/25 00:32:40;;;;;;;8.70;1.83;;;5.30;97.00;;;;;;5053460;28;20024;-88
2020/12/25 00:35:06;;;;;;;8.80;1.75;;;5.30;97.00;;;;;;5037246;28;20070;-88
2020/12/25 00:37:31;;;;;;;8.07;1.90;;;5.30;97.00;;;;;;5034259;28;20044;-90
2020/12/25 00:40:00;;;;;;;7.00;2.00;;;5.20;96.90;;;;;;5046281;28;20028;-88
2020/12/25 00:42:29;;;;;;;6.43;1.85;;;5.20;96.90;;;;;;5054763;28;20039;-88
2020/12/25 00:45:01;;;;;;;8.40;2.20;;;5.20;96.90;;;;;;5034755;28;20075;-88
2020/12/25 00:47:51;;;;;;;6.60;2.15;;;5.20;96.90;;;;;;5051862;28;20025;-88
2020/12/25 00:50:16;;;;;;;5.40;1.30;;;5.20;96.90;;;;;;5051133;28;20064;-88
2020/12/25 00:52:42;;;;;;;6.13;1.42;;;5.20;96.90;;;;;;5018970;28;20055;-88
2020/12/25 00:55:08;;;;;;;5.50;1.42;;;5.10;96.90;;;;;;5027515;28;20486;-88
2020/12/25 00:57:33;;;;;;;6.40;1.40;;;5.10;96.90;;;;;;5071840;28;20020;-89
2020/12/25 00:59:59;;;;;;;6.50;1.70;;;5.10;96.90;;;;;;5042512;28;20032;-90
2020/12/25 01:02:28;;;;;;;9.73;1.83;;;5.10;96.90;;;;;;5069055;28;20021;-88
2020/12/25 01:05:17;;;;;;;7.72;1.50;;;5.10;96.90;;;;;;5058126;28;20112;-88
2020/12/25 01:13:39;;;;;;;6.88;1.20;;;5.00;96.90;;;;;;5093470;28;20051;-90
2020/12/25 01:16:25;;;;;;;5.55;1.42;;;5.00;96.90;;;;;;5078863;28;20035;-89
2020/12/25 01:19:06;;;;;;;6.45;1.50;;;4.90;96.90;;;;;;5040265;28;20132;-89
2020/12/25 01:21:38;;;;;;;4.65;1.02;;;4.90;96.90;;;;;;5019621;28;20047;-89
2020/12/25 01:24:09;;;;;;;5.60;1.23;;;4.90;96.90;;;;;;5024218;28;20090;-89
2020/12/25 01:26:37;;;;;;;8.52;1.30;;;4.90;96.90;;;;;;5020673;28;20036;-90
2020/12/25 01:29:18;;;;;;;5.90;1.30;;;4.90;97.00;;;;;;5021971;28;20079;-89
2020/12/25 01:31:43;;;;;;;7.47;1.60;;;4.90;97.00;;;;;;5037344;28;20473;-89
2020/12/25 01:34:09;;;;;;;8.63;1.52;;;4.90;97.00;;;;;;5018568;28;20060;-89
2020/12/25 01:36:50;;;;;;;5.80;1.10;;;4.90;97.00;;;;;;5033458;28;20514;-90
2020/12/25 01:39:15;;;;;;;4.90;1.45;;;4.80;97.00;;;;;;5029057;28;20040;-89
2020/12/25 01:41:41;;;;;;;3.20;1.23;;;4.90;97.00;;;;;;5020726;28;20041;-89
2020/12/25 01:44:06;;;;;;;4.40;1.20;;;4.80;97.00;;;;;;5020861;28;20043;-90
2020/12/25 01:46:32;;;;;;;5.43;1.40;;;4.90;97.10;;;;;;5020288;28;20048;-89
2020/12/25 01:48:58;;;;;;;6.22;1.08;;;4.80;97.00;;;;;;5029678;28;20087;-89
2020/12/25 01:51:24;;;;;;;10.60;1.38;;;4.80;97.10;;;;;;5003774;28;20096;-89
2020/12/25 01:53:50;;;;;;;4.25;1.40;;;4.80;97.00;;;;;;5020293;28;20029;-89
2020/12/25 01:59:03;;;;;;;4.50;1.00;;;4.80;97.00;;;;;;5074957;28;20031;-89
2020/12/25 02:02:08;;;;;;;6.85;1.10;;;4.80;97.00;;;;;;5038745;28;20087;-89
2020/12/25 02:04:34;;;;;;;6.65;1.20;;;4.80;97.00;;;;;;5044871;28;20051;-90
2020/12/25 02:07:00;;;;;;;9.35;1.25;;;4.80;97.00;;;;;;5040530;28;20413;-89
2020/12/25 02:09:38;;;;;;;5.22;0.85;;;4.80;97.00;;;;;;5051996;28;20492;-89
2020/12/25 02:12:04;;;;;;;5.88;1.20;;;4.80;97.00;;;;;;5056342;28;20044;-89
2020/12/25 02:14:30;;;;;;;6.60;1.05;;;4.80;97.00;;;;;;5041231;28;20469;-89
2020/12/25 02:17:07;;;;;;;5.25;1.50;;;4.80;97.00;;;;;;5040951;28;20031;-89
2020/12/25 02:19:51;;;;;;;6.82;1.02;;;4.80;97.10;;;;;;5057345;28;20040;-89
2020/12/25 02:22:20;;;;;;;4.57;1.00;;;4.80;97.00;;;;;;5042759;28;20035;-89
2020/12/25 02:24:45;;;;;;;8.80;1.50;;;4.70;97.00;;;;;;5040908;28;20036;-90
2020/12/25 02:27:27;;;;;;;5.80;1.15;;;4.70;97.00;;;;;;5054599;28;20111;-90
2020/12/25 02:29:55;;;;;;;8.30;1.40;;;4.70;97.00;;;;;;5040807;28;20025;-90
2020/12/25 02:32:21;;;;;;;8.90;2.75;;;4.70;97.00;;;;;;5041119;28;20024;-90
2020/12/25 02:34:52;;;;;;;3.35;1.20;;;4.70;97.00;;;;;;5051512;28;20615;-90
2020/12/25 02:37:18;;;;;;;6.93;1.30;;;4.70;97.10;;;;;;5059276;28;20020;-90
2020/12/25 02:39:44;;;;;;;3.50;0.98;;;4.70;97.10;;;;;;5060464;28;20038;-90
2020/12/25 02:42:22;;;;;;;6.85;1.30;;;4.70;97.00;;;;;;5043839;28;20054;-90
2020/12/25 02:44:47;;;;;;;3.85;1.13;;;4.70;97.00;;;;;;5047303;28;20119;-90
2020/12/25 02:47:13;;;;;;;6.90;1.30;;;4.70;97.10;;;;;;5040071;28;20500;-90
2020/12/25 02:49:39;;;;;;;4.28;1.30;;;4.70;97.10;;;;;;5059223;28;20059;-90
2020/12/25 02:52:05;;;;;;;3.60;1.00;;;4.70;97.10;;;;;;5077011;28;20020;-90
2020/12/25 02:54:31;;;;;;;7.15;1.60;;;4.70;97.10;;;;;;5062554;28;20030;-90
2020/12/25 02:56:58;;;;;;;7.32;1.35;;;4.70;97.10;;;;;;5051121;28;20021;-90
2020/12/25 02:59:24;;;;;;;7.13;1.60;;;4.60;97.10;;;;;;5071152;28;20020;-90
2020/12/25 03:01:59;;;;;;;7.80;1.23;;;4.70;97.10;;;;;;5075493;28;20127;-90
2020/12/25 03:04:25;;;;;;;6.72;1.90;;;4.70;97.10;;;;;;5045478;28;20033;-90
2020/12/25 03:06:50;;;;;;;9.88;1.23;;;4.70;97.10;;;;;;5044172;28;20028;-89
2020/12/25 03:09:16;;;;;;;3.30;1.20;;;4.60;97.00;;;;;;5057755;28;20034;-90
2020/12/25 03:11:42;;;;;;;6.97;1.38;;;4.70;97.10;;;;;;5037741;28;20060;-90
2020/12/25 03:14:07;;;;;;;4.28;1.30;;;4.70;97.10;;;;;;5059468;28;20107;-90
2020/12/25 03:16:33;;;;;;;5.43;1.55;;;4.70;97.10;;;;;;5075408;28;20069;-90
2020/12/25 03:18:59;;;;;;;8.48;1.30;;;4.60;97.00;;;;;;5076310;28;20024;-90
2020/12/25 03:21:24;;;;;;;7.05;1.10;;;4.60;97.00;;;;;;5058919;28;20028;-89
2020/12/25 03:23:59;;;;;;;4.53;1.80;;;4.60;97.00;;;;;;5076014;28;20073;-90
2020/12/25 03:26:25;;;;;;;3.58;1.20;;;4.60;97.00;;;;;;5038500;28;20032;-90
2020/12/25 03:28:51;;;;;;;4.57;1.52;;;4.60;97.00;;;;;;5057466;28;20120;-90
2020/12/25 03:31:17;;;;;;;1.92;0.93;;;4.60;97.00;;;;;;5042868;28;20400;-90
2020/12/25 03:33:42;;;;;;;1.35;0.75;;;4.60;97.10;;;;;;5041533;28;20020;-90
2020/12/25 03:36:08;;;;;;;3.97;1.00;;;4.60;97.10;;;;;;5055784;28;20078;-90
2020/12/25 03:38:33;;;;;;;5.13;1.00;;;4.60;97.10;;;;;;5057282;28;20033;-90
2020/12/25 03:41:01;;;;;;;4.32;0.90;;;4.60;97.30;;;;;;5038775;28;20024;-90
2020/12/25 03:43:27;;;;;;;4.13;1.27;;;4.60;97.10;;;;;;5056527;28;20032;-89
2020/12/25 03:45:52;;;;;;;1.50;0.70;;;4.50;97.10;;;;;;5058089;28;20433;-90
2020/12/25 03:48:18;;;;;;;1.75;0.70;;;4.60;97.10;;;;;;5075381;28;20024;-90
2020/12/25 03:50:44;;;;;;;2.22;0.93;;;4.60;97.20;;;;;;5051024;28;20198;-90
2020/12/25 03:53:09;;;;;;;2.47;0.85;;;4.60;97.20;;;;;;5049789;28;20393;-89
2020/12/25 03:55:47;;;;;;;3.17;1.05;;;4.60;97.20;;;;;;5055521;28;20028;-90
2020/12/25 03:58:13;;;;;;;3.53;0.73;;;4.60;97.20;;;;;;5058044;28;20045;-90
2020/12/25 04:00:38;;;;;;;6.28;1.48;;;4.60;97.20;;;;;;5042193;28;20106;-89
2020/12/25 04:03:04;;;;;;;3.42;0.68;;;4.60;97.20;;;;;;5055524;28;20424;-90
2020/12/25 04:05:30;;;;;;;4.95;1.33;;;4.60;97.20;;;;;;5042367;28;20025;-90
2020/12/25 04:07:55;;;;;;;3.67;0.63;;;4.60;97.20;;;;;;5049251;28;20020;-90
2020/12/25 04:10:21;;;;;;;4.13;0.60;;;4.50;97.20;;;;;;5036015;28;20496;-90
2020/12/25 04:12:47;;;;;;;4.50;0.80;;;4.60;97.20;;;;;;5029693;28;20135;-90
2020/12/25 04:15:12;;;;;;;2.88;0.40;;;4.60;97.20;;;;;;5058822;28;20020;-90
2020/12/25 04:17:38;;;;;;;2.33;0.68;;;4.60;97.20;;;;;;5058616;28;20027;-90
2020/12/25 04:20:04;;;;;;;3.20;0.60;;;4.60;97.20;;;;;;5059184;28;20052;-90
2020/12/25 04:22:29;;;;;;;3.13;0.88;;;4.60;97.20;;;;;;5058576;28;20079;-90
2020/12/25 04:25:05;;;;;;;3.13;0.85;;;4.50;97.10;;;;;;5058066;28;20396;-90
2020/12/25 04:27:31;;;;;;;1.95;1.00;;;4.50;97.10;;;;;;5073323;28;20054;-90
2020/12/25 04:29:56;;;;;;;2.80;0.60;;;4.50;97.10;;;;;;5038730;28;20052;-90
2020/12/25 04:32:28;;;;;;;2.45;0.60;;;4.50;97.00;;;;;;5042308;28;20115;-89
2020/12/25 04:34:54;;;;;;;2.90;0.68;;;4.50;97.00;;;;;;5045529;28;20106;-90
2020/12/25 04:37:20;;;;;;;1.55;0.60;;;4.50;97.10;;;;;;5058350;28;20024;-90
2020/12/25 04:39:45;;;;;;;1.80;0.50;;;4.50;97.00;;;;;;5055082;28;20036;-90
2020/12/25 04:42:11;;;;;;;2.88;0.57;;;4.50;97.00;;;;;;5075138;28;20059;-90
2020/12/25 04:44:37;;;;;;;2.67;0.50;;;4.50;97.00;;;;;;5075034;28;20027;-89
2020/12/25 04:47:10;;;;;;;1.88;0.57;;;4.40;97.00;;;;;;5055074;28;20037;-90
2020/12/25 04:49:37;;;;;;;1.35;0.50;;;4.40;97.00;;;;;;5073862;28;20031;-90
2020/12/25 04:52:07;;;;;;;2.22;0.45;;;4.40;97.00;;;;;;5055290;28;20024;-90
2020/12/25 04:54:33;;;;;;;5.18;0.50;;;4.40;97.00;;;;;;5055335;28;20468;-90
2020/12/25 04:56:59;;;;;;;1.10;0.50;;;4.40;97.00;;;;;;5057749;28;20135;-90
2020/12/25 04:59:29;;;;;;;2.30;0.50;;;4.40;97.00;;;;;;5058534;28;20545;-90
2020/12/25 05:01:56;;;;;;;4.72;0.93;;;4.40;97.00;;;;;;5044288;28;20028;-90
2020/12/25 05:04:24;;;;;;;1.80;0.50;;;4.40;97.00;;;;;;5064376;28;20024;-90
2020/12/25 05:06:54;;;;;;;1.20;0.50;;;4.40;97.00;;;;;;5055496;28;20024;-90
2020/12/25 05:09:25;;;;;;;2.15;0.50;;;4.40;97.00;;;;;;5075005;28;20058;-90
2020/12/25 05:11:57;;;;;;;3.38;1.15;;;4.40;97.10;;;;;;5074767;28;20051;-90
2020/12/25 05:14:25;;;;;;;4.50;0.43;;;4.40;97.00;;;;;;5038217;28;20021;-90
2020/12/25 05:16:54;;;;;;;6.20;0.70;;;4.40;97.00;;;;;;5068750;28;20465;-90
2020/12/25 05:19:25;;;;;;;4.38;0.65;;;4.30;96.90;;;;;;5045997;28;20028;-91
2020/12/25 05:21:53;;;;;;;1.40;0.60;;;4.30;96.80;;;;;;5074841;28;20545;-88
2020/12/25 05:24:18;;;;;;;1.60;0.60;;;4.30;96.80;;;;;;5075363;28;20499;-89
2020/12/25 05:26:55;;;;;;;1.20;0.50;;;4.30;96.90;;;;;;5058246;28;20024;-89
2020/12/25 05:29:26;;;;;;;4.03;0.88;;;4.30;97.00;;;;;;5040833;28;20040;-88
2020/12/25 05:31:53;;;;;;;2.40;0.60;;;4.30;97.00;;;;;;5054490;28;20017;-88
2020/12/25 05:34:21;;;;;;;3.45;0.63;;;4.30;97.10;;;;;;5051557;28;20056;-89
2020/12/25 05:36:52;;;;;;;3.47;0.52;;;4.30;97.10;;;;;;5053909;28;20401;-89
2020/12/25 05:39:37;;;;;;;2.05;0.40;;;4.30;97.10;;;;;;5040344;28;20036;-88
2020/12/25 05:42:08;;;;;;;0.80;0.40;;;4.30;97.10;;;;;;5061398;28;20056;-89
2020/12/25 05:44:53;;;;;;;0.93;0.30;;;4.30;97.10;;;;;;5078147;28;20028;-88
2020/12/25 05:47:19;;;;;;;0.75;0.30;;;4.30;97.10;;;;;;5077189;28;20500;-89
2020/12/25 05:49:45;;;;;;;3.67;0.77;;;4.30;97.00;;;;;;5030857;28;20039;-89
2020/12/25 05:52:14;;;;;;;2.20;0.50;;;4.30;97.00;;;;;;5077800;28;20016;-89
2020/12/25 05:54:42;;;;;;;1.58;0.40;;;4.30;97.10;;;;;;5058123;28;20048;-89
2020/12/25 05:57:08;;;;;;;1.35;0.50;;;4.30;97.10;;;;;;5052726;28;20386;-89
2020/12/25 05:59:34;;;;;;;1.92;0.63;;;4.30;97.10;;;;;;5069574;28;20023;-89
2020/12/25 06:02:02;;;;;;;3.25;0.50;;;4.30;97.10;;;;;;5077112;28;20016;-89
2020/12/25 06:04:30;;;;;;;1.63;0.57;;;4.30;97.30;;;;;;5065588;28;20082;-90
2020/12/25 06:06:56;;;;;;;2.35;0.52;;;4.30;97.00;;;;;;5060550;28;20032;-90
2020/12/25 06:09:32;;;;;;;1.13;0.45;;;4.30;97.00;;;;;;5067908;28;20016;-89
2020/12/25 06:12:11;;;;;;;2.20;0.70;;;4.20;97.00;;;;;;5074630;28;20119;-89
2020/12/25 06:14:37;;;;;;;3.30;0.60;;;4.20;96.90;;;;;;5077475;28;20413;-89
2020/12/25 06:17:22;;;;;;;3.88;0.80;;;4.20;96.90;;;;;;5043484;28;20036;-90
2020/12/25 06:20:01;;;;;;;1.63;0.70;;;4.20;96.90;;;;;;5057877;28;20021;-89
2020/12/25 06:22:47;;;;;;;3.40;0.88;;;4.20;96.90;;;;;;5063359;28;20056;-89
2020/12/25 06:25:14;;;;;;;2.20;0.90;;;4.20;96.90;;;;;;5056916;28;20033;-89
2020/12/25 06:28:00;;;;;;;6.70;1.10;;;4.20;97.00;;;;;;5070742;28;20031;-89
2020/12/25 06:30:33;;;;;;;6.50;0.80;;;4.20;97.10;;;;;;5089164;28;20070;-89
2020/12/25 06:32:59;;;;;;;3.75;0.90;;;4.20;97.00;;;;;;5044733;28;20052;-89
2020/12/25 06:35:45;;;;;;;3.47;0.80;;;4.20;96.90;;;;;;5071163;28;20421;-89
2020/12/25 06:38:13;;;;;;;4.13;0.90;;;4.20;97.00;;;;;;5056814;28;20040;-89
2020/12/25 06:40:39;;;;;;;2.85;0.75;;;4.10;96.90;;;;;;5058389;28;20028;-89
2020/12/25 06:43:21;;;;;;;3.25;0.85;;;4.20;97.00;;;;;;5060483;28;20111;-89
2020/12/25 06:45:52;;;;;;;4.53;0.82;;;4.10;97.10;;;;;;5058774;28;20063;-89
2020/12/25 06:48:20;;;;;;;4.75;1.88;;;4.10;97.10;;;;;;5044841;28;20035;-89
2020/12/25 06:50:54;;;;;;;7.85;1.00;;;4.10;97.10;;;;;;5071973;28;20089;-89
2020/12/25 06:53:43;;;;;;;5.28;0.93;;;4.10;97.10;;;;;;5076525;28;20477;-89
2020/12/25 06:56:09;;;;;;;5.25;1.25;;;4.10;97.10;;;;;;5061339;28;20020;-90
2020/12/25 06:58:44;;;;;;;4.53;0.80;;;4.20;97.20;;;;;;5060200;28;20052;-89
2020/12/25 07:01:11;;;;;;;4.38;0.98;;;4.20;97.20;;;;;;5076675;28;20036;-89
2020/12/25 07:03:38;;;;;;;7.30;1.10;;;4.20;97.40;;;;;;5059802;28;20020;-89
2020/12/25 07:06:05;;;;;;;5.18;0.95;;;4.20;97.10;;;;;;5076898;28;20032;-89
2020/12/25 07:08:39;;;;;;;5.22;0.98;;;4.20;97.10;;;;;;5059799;28;20104;-89
2020/12/25 07:11:09;;;;;;;4.70;1.00;;;4.20;97.10;;;;;;5081442;22;20094;-88
2020/12/25 07:13:53;;;;;;;2.85;0.95;;;4.20;97.10;;;;;;5058284;28;20024;-88
2020/12/25 07:16:40;;;;;;;2.33;0.77;;;4.20;97.20;;;;;;5059435;28;20426;-88
2020/12/25 07:19:06;;;;;;;2.83;0.70;;;4.20;97.20;;;;;;5053348;28;20111;-88
2020/12/25 07:21:33;;;;;;;4.25;0.85;;;4.20;97.20;;;;;;5039538;28;20524;-88
2020/12/25 07:24:05;;;;;;;5.70;1.05;;;4.20;97.20;;;;;;5090527;28;20110;-88
2020/12/25 07:26:30;;;;;;;5.50;0.90;;;4.20;97.20;;;;;;5045439;28;20041;-88
2020/12/25 07:28:57;;;;;;;5.15;0.70;;;4.30;97.30;;;;;;5037729;28;20057;-88
2020/12/25 07:31:23;;;;;;;5.47;0.82;;;4.20;97.20;;;;;;5066920;28;20107;-88
2020/12/25 07:33:54;;;;;;;5.30;1.02;;;4.20;97.20;;;;;;5070287;28;20520;-88
2020/12/25 07:36:24;;;;;;;5.45;0.63;;;4.20;97.20;;;;;;5059036;28;20028;-88
2020/12/25 07:39:03;;;;;;;4.18;0.82;;;4.20;97.20;;;;;;5075467;28;20024;-88
2020/12/25 07:41:29;;;;;;;4.35;1.00;;;4.20;97.20;;;;;;5075737;28;20028;-89
2020/12/25 07:43:56;;;;;;;7.63;0.98;;;4.20;97.20;;;;;;5059084;28;20069;-89
2020/12/25 07:46:24;;;;;;;5.57;1.25;;;4.20;97.20;;;;;;5058569;28;20039;-89
2020/12/25 07:49:08;;;;;;;6.60;0.80;;;4.20;97.20;;;;;;5062874;28;20032;-89
2020/12/25 07:51:46;;;;;;;5.03;1.25;;;4.20;97.10;;;;;;5055964;28;20050;-90
2020/12/25 07:54:33;;;;;;;4.35;0.70;;;4.20;97.10;;;;;;5076426;28;20514;-90
2020/12/25 07:57:11;;;;;;;5.07;0.88;;;4.20;97.10;;;;;;5075529;28;20457;-89
2020/12/25 08:00:08;;;;;;;4.80;1.42;;;4.20;97.10;;;;;;5045219;28;20034;-88
2020/12/25 08:03:03;;;;;;;3.78;0.90;;;4.20;97.10;;;;;;5062263;28;20040;-89
2020/12/25 08:05:35;;;;;;;8.43;1.42;;;4.20;97.10;;;;;;5010633;28;20030;-90
2020/12/25 08:08:02;;;;;;;7.95;1.38;;;4.10;97.10;;;;;;5037982;28;20037;-90
2020/12/25 08:10:29;;;;;;;5.10;0.85;;;4.10;97.10;;;;;;5051498;28;20047;-90
2020/12/25 08:13:05;;;;;;;6.03;0.90;;;4.20;97.10;;;;;;5028891;28;20111;-89
2020/12/25 08:15:33;;;;;;;3.97;0.68;;;4.10;97.10;;;;;;5055046;28;20016;-89
2020/12/25 08:17:59;;;;;;;2.78;0.60;;;4.10;97.20;;;;;;5053869;28;20028;-89
2020/12/25 08:20:34;;;;;;;3.13;0.65;;;4.10;97.20;;;;;;5052903;28;20024;-89
2020/12/25 08:23:25;;;;;;;3.78;0.65;;;4.10;97.20;;;;;;5062874;28;20046;-89
2020/12/25 08:25:54;;;;;;;3.97;0.90;;;4.10;97.20;;;;;;5083097;28;20025;-89
2020/12/25 08:28:55;;;;;;;4.13;1.00;;;4.10;97.20;;;;;;5032922;28;20024;-90
2020/12/25 08:32:17;;;;;;;3.63;0.80;;;4.10;97.20;;;;;;4946867;28;20039;-90
2020/12/25 08:34:46;;;;;;;11.68;1.50;;;4.10;97.20;;;;;;4892040;28;20031;-90
2020/12/25 08:37:30;;;;;;;5.72;1.17;;;4.10;97.10;;;;;;5046143;28;20474;-90
2020/12/25 08:40:23;;;;;;;6.63;1.20;;;4.10;97.00;;;;;;5061741;28;20068;-90
2020/12/25 08:43:31;;;;;;;4.82;1.13;;;4.10;97.00;;;;;;5042481;28;20033;-90
2020/12/25 08:46:08;;;;;;;6.10;1.35;;;4.10;97.00;;;;;;5068856;28;20041;-88
2020/12/25 08:48:47;;;;;;;5.13;1.38;;;4.10;97.10;;;;;;5050805;28;20025;-88
2020/12/25 08:51:21;;;;;;;10.93;2.42;;;4.10;97.10;;;;;;5052930;28;20107;-89
2020/12/25 08:53:54;;;;;;;8.90;2.25;;;4.10;97.20;;;;;;5051800;28;20078;-88
2020/12/25 08:56:46;;;;;;;8.65;1.65;;;4.20;97.20;;;;;;5034490;28;20061;-89
2020/12/25 08:59:25;;;;;;;5.32;1.55;;;4.20;97.20;;;;;;5051879;28;20044;-88
2020/12/25 09:01:51;;;;;;;8.10;1.60;;;4.20;97.20;;;;;;5066854;28;20032;-87
2020/12/25 09:04:30;;;;;;;7.10;1.90;;;4.20;97.20;;;;;;5066653;28;20037;-86
2020/12/25 09:06:56;;;;;;;8.10;1.75;;;4.20;97.30;;;;;;5028892;28;20098;-88
2020/12/25 09:09:22;;;;;;;6.05;1.20;;;4.30;97.40;;;;;;5051315;28;20561;-88
2020/12/25 09:11:56;;;;;;;9.25;1.95;;;4.30;97.40;;;;;;5020345;28;20036;-86
2020/12/25 09:14:34;;;;;;;10.05;2.13;;;4.30;97.40;;;;;;5021224;28;20119;-86
2020/12/25 09:16:59;;;;;;;10.35;1.92;;;4.40;97.30;;;;;;5044854;28;20048;-86
2020/12/25 09:19:25;;;;;;;8.13;2.30;;;4.40;97.20;;;;;;5042679;28;20021;-86
2020/12/25 09:21:51;;;;;;;8.48;1.38;;;4.40;97.10;;;;;;5028859;28;20465;-86
2020/12/25 09:24:16;;;;;;;7.75;1.98;;;4.40;97.20;;;;;;5039054;28;20389;-87
2020/12/25 09:27:08;;;;;;;7.78;1.48;;;4.40;97.20;;;;;;5037746;28;20040;-86
2020/12/25 09:29:33;;;;;;;7.20;1.48;;;4.50;97.30;;;;;;5062826;28;20481;-86
2020/12/25 09:32:21;;;;;;;9.40;1.70;;;4.50;97.30;;;;;;5035107;28;20069;-86
2020/12/25 09:34:47;;;;;;;7.22;1.95;;;4.50;97.30;;;;;;5054666;28;20031;-86
2020/12/25 09:37:12;;;;;;;7.68;1.60;;;4.50;97.30;;;;;;5046217;28;20028;-87
2020/12/25 09:39:47;;;;;;;9.25;2.00;;;4.60;97.20;;;;;;5038206;28;20063;-86
2020/12/25 09:42:22;;;;;;;6.25;1.50;;;4.60;97.20;;;;;;5052206;28;20050;-87
2020/12/25 09:44:57;;;;;;;10.57;1.80;;;4.60;97.20;;;;;;5050823;28;20060;-87
2020/12/25 09:47:23;;;;;;;5.50;1.52;;;4.70;97.20;;;;;;5043402;28;20033;-86
2020/12/25 09:49:54;;;;;;;8.07;1.80;;;4.70;97.20;;;;;;5031333;28;20116;-86
2020/12/25 09:52:20;;;;;;;8.63;1.70;;;4.70;97.10;;;;;;5023630;28;20047;-86
2020/12/25 09:54:46;;;;;;;12.02;3.13;;;4.70;97.20;;;;;;5054591;28;20029;-87
2020/12/25 09:57:23;;;;;;;9.23;1.60;;;4.80;97.30;;;;;;5048237;28;20025;-87
2020/12/25 09:59:49;;;;;;;14.60;3.25;;;4.80;97.30;;;;;;5067578;28;20442;-89
2020/12/25 10:02:16;;;;;;;6.50;1.92;;;4.90;97.30;;;;;;5063943;28;20032;-89
2020/12/25 10:04:42;;;;;;;6.80;1.55;;;4.90;97.30;;;;;;5075088;28;20024;-88
2020/12/25 10:07:08;;;;;;;8.73;2.15;;;4.90;97.30;;;;;;5058172;28;20150;-88
2020/12/25 10:09:33;;;;;;;7.88;1.33;;;5.00;97.30;;;;;;5073186;28;20108;-88
2020/12/25 10:11:59;;;;;;;5.72;1.27;;;5.00;97.30;;;;;;5052511;28;20033;-88
2020/12/25 10:14:24;;;;;;;9.40;1.52;;;5.10;97.40;;;;;;5057893;28;20024;-87
2020/12/25 10:16:50;;;;;;;7.72;1.83;;;5.20;97.40;;;;;;5054644;28;20012;-89
2020/12/25 10:19:16;;;;;;;6.50;1.20;;;5.20;97.40;;;;;;5052663;28;20115;-88
2020/12/25 10:21:42;;;;;;;4.38;1.05;;;5.30;97.50;;;;;;5035660;28;20392;-87
2020/12/25 10:24:20;;;;;;;7.63;1.33;;;5.30;97.50;;;;;;5030544;28;20037;-86
2020/12/25 10:26:49;;;;;;;3.28;1.15;;;5.30;97.50;;;;;;5057395;28;20110;-87
2020/12/25 10:29:17;;;;;;;7.00;1.02;;;5.40;97.50;;;;;;5064890;28;20020;-86
2020/12/25 10:31:58;;;;;;;3.70;0.88;;;5.40;97.50;;;;;;5040487;28;20029;-87
2020/12/25 10:34:27;;;;;;;2.53;0.70;;;5.40;97.40;;;;;;5053115;28;20025;-86
2020/12/25 10:36:53;;;;;;;4.28;1.30;;;5.50;97.40;;;;;;5054954;28;20028;-88
2020/12/25 10:39:43;;;;;;;2.50;0.73;;;5.50;97.40;;;;;;5041608;28;20480;-87
2020/12/25 10:42:14;;;;;;;2.72;0.80;;;5.50;97.40;;;;;;5053879;28;20045;-89
2020/12/25 10:44:40;;;;;;;4.53;0.90;;;5.50;97.40;;;;;;5069829;28;20553;-88
2020/12/25 10:47:09;;;;;;;2.92;0.77;;;5.50;97.40;;;;;;5039552;28;20174;-89
2020/12/25 10:49:35;;;;;;;2.35;0.65;;;5.60;97.40;;;;;;5053778;28;20039;-89
2020/12/25 10:52:00;;;;;;;4.03;0.95;;;5.60;97.40;;;;;;5043830;28;20382;-89
2020/12/25 10:54:26;;;;;;;5.78;0.90;;;5.60;97.40;;;;;;5041425;28;20465;-89
2020/12/25 10:56:52;;;;;;;2.80;0.50;;;5.70;97.40;;;;;;5051879;28;20074;-89
2020/12/25 10:59:21;;;;;;;2.67;0.60;;;5.70;97.40;;;;;;5049353;28;20583;-90
2020/12/25 11:01:48;;;;;;;8.25;0.98;;;5.70;97.30;;;;;;5052441;28;20024;-89
2020/12/25 11:04:23;;;;;;;3.22;0.82;;;5.70;97.30;;;;;;5054706;28;20040;-89
2020/12/25 11:06:54;;;;;;;2.92;1.02;;;5.70;97.10;;;;;;5051224;28;20033;-89
2020/12/25 11:09:40;;;;;;;3.13;0.68;;;5.80;97.20;;;;;;5036647;28;20037;-90
2020/12/25 11:12:08;;;;;;;2.22;0.75;;;5.80;97.20;;;;;;5030320;28;20049;-91
2020/12/25 11:14:34;;;;;;;4.20;0.80;;;5.80;97.20;;;;;;5035451;28;20017;-89
2020/12/25 11:17:06;;;;;;;4.25;0.63;;;5.80;97.20;;;;;;5034442;28;20025;-90
2020/12/25 11:19:32;;;;;;;2.80;0.90;;;5.90;97.30;;;;;;5025592;28;20060;-90
2020/12/25 11:22:00;;;;;;;3.97;1.08;;;6.00;97.20;;;;;;5037753;28;20032;-91
2020/12/25 11:24:26;;;;;;;3.40;0.70;;;6.00;97.10;;;;;;5018989;28;20013;-90
2020/12/25 11:27:01;;;;;;;3.05;0.50;;;6.00;97.10;;;;;;5036456;28;20056;-89
2020/12/25 11:29:47;;;;;;;2.90;0.43;;;6.10;97.10;;;;;;5002458;28;20029;-89
2020/12/25 11:32:13;;;;;;;2.05;0.47;;;6.20;97.10;;;;;;5042604;28;20021;-90
2020/12/25 11:34:51;;;;;;;4.03;0.50;;;6.20;97.20;;;;;;5012548;28;20104;-89
2020/12/25 11:37:28;;;;;;;5.20;1.15;;;6.30;97.20;;;;;;5045642;28;20351;-89
2020/12/25 11:46:09;;;;;;;5.40;1.05;;;6.40;96.20;;;;;;5050502;28;20536;-86
2020/12/25 11:48:35;;;;;;;2.20;0.75;;;6.50;96.40;;;;;;5036177;28;20056;-86
2020/12/25 11:51:40;;;;;;;1.50;0.40;;;6.50;96.50;;;;;;5027294;28;20032;-87
2020/12/25 11:54:17;;;;;;;4.93;1.00;;;6.50;96.70;;;;;;5036955;28;20013;-86
2020/12/25 11:57:03;;;;;;;6.82;1.52;;;6.60;96.70;;;;;;5033499;28;20052;-88
2020/12/25 11:59:54;;;;;;;6.07;0.80;;;6.60;96.50;;;;;;5017586;28;20132;-89
2020/12/25 12:02:20;;;;;;;;;;;6.60;96.30;;;;;;5027866;28;20040;-88
2020/12/25 12:04:52;;;;;;;3.03;0.85;;;6.70;96.00;;;;;;5028696;28;19908;-88
2020/12/25 12:07:21;;;;;;;4.95;1.00;;;6.70;96.20;;;;;;5022750;28;20021;-88
2020/12/25 12:09:46;;;;;;;7.20;1.35;;;6.70;96.10;;;;;;5020427;28;20029;-87
2020/12/25 12:12:12;;;;;;;6.90;1.42;;;6.70;96.30;;;;;;5059228;28;20036;-87
2020/12/25 12:15:03;;;;;;;3.75;0.93;;;6.80;96.40;;;;;;5050425;28;20401;-88
2020/12/25 12:17:40;;;;;;;8.27;1.00;;;6.90;96.50;;;;;;5054563;28;20077;-86
2020/12/25 12:20:14;;;;;;;6.82;1.27;;;6.90;96.30;;;;;;5066620;28;20470;-86
2020/12/25 12:22:47;;;;;;;5.63;1.02;;;7.00;96.30;;;;;;5035583;28;20031;-86
2020/12/25 12:28:16;;;;;;;4.70;0.80;;;7.10;96.10;;;;;;5056114;28;20040;-86
2020/12/25 12:30:47;;;;;;;8.77;1.17;;;7.10;96.20;;;;;;5071201;28;20483;-87
2020/12/25 12:33:19;;;;;;;6.10;1.13;;;7.20;96.30;;;;;;5037947;28;20021;-86
2020/12/25 12:35:45;;;;;;;6.03;1.05;;;7.20;96.10;;;;;;5036869;28;20070;-86
2020/12/25 12:38:11;;;;;;;3.45;0.80;;;7.30;96.10;;;;;;5060398;28;20035;-87
2020/12/25 12:40:37;;;;;;;3.08;0.77;;;7.40;96.30;;;;;;5059825;28;20032;-85
2020/12/25 12:43:11;;;;;;;5.05;1.10;;;7.40;96.40;;;;;;5069391;28;20040;-86
2020/12/25 12:45:37;;;;;;;5.18;0.98;;;7.50;96.00;;;;;;5059626;28;20021;-85
2020/12/25 12:48:24;;;;;;;5.38;0.95;;;7.50;95.90;;;;;;5036688;28;20536;-86
2020/12/25 12:50:52;;;;;;;4.47;1.23;;;7.60;95.90;;;;;;5064645;28;20087;-86
2020/12/25 12:53:49;;;;;;;4.22;1.00;;;7.60;96.10;;;;;;5071153;28;20532;-86
2020/12/25 12:56:18;;;;;;;8.45;1.55;;;7.60;96.10;;;;;;5061371;28;20049;-86
2020/12/25 12:59:11;;;;;;;4.40;1.35;;;7.70;96.00;;;;;;5073084;28;20103;-86
2020/12/25 13:01:46;;;;;;;4.90;1.05;;;7.70;95.90;;;;;;5006454;28;20124;-86
2020/12/25 13:04:53;;;;;;;3.20;0.63;;;7.70;95.90;;;;;;4996811;28;20028;-86
2020/12/25 13:07:40;;;;;;;4.45;0.88;;;7.80;95.90;;;;;;4993817;28;20034;-86
2020/12/25 13:10:05;;;;;;;8.38;1.10;;;7.80;95.90;;;;;;5042373;22;20065;-89
2020/12/25 13:12:31;;;;;;;6.45;0.95;;;7.80;95.60;;;;;;5038887;28;20036;-89
2020/12/25 13:14:57;;;;;;;4.65;1.38;;;7.80;95.40;;;;;;5056268;28;20463;-88
2020/12/25 13:17:23;;;;;;;6.30;0.68;;;7.80;95.30;;;;;;5070923;28;20384;-88
2020/12/25 13:19:48;;;;;;;7.40;1.27;;;7.70;95.20;;;;;;5053632;28;20021;-91
2020/12/25 13:22:14;;;;;;;2.70;1.08;;;7.70;95.00;;;;;;5054899;28;20021;-88
2020/12/25 13:24:42;;;;;;;5.25;1.02;;;7.70;94.90;;;;;;5054797;28;20017;-89
2020/12/25 13:27:08;;;;;;;6.03;0.90;;;7.60;94.60;;;;;;5046913;28;20025;-91
2020/12/25 13:29:34;;;;;;;4.53;0.93;;;7.60;94.40;;;;;;5055136;28;20029;-89
2020/12/25 13:32:01;;;;;;;5.70;1.15;;;7.50;94.60;;;;;;5051989;28;20032;-90
2020/12/25 13:34:27;;;;;;;2.90;0.70;;;7.60;94.80;;;;;;5051725;28;20112;-92
2020/12/25 13:36:55;;;;;;;5.10;1.33;;;7.60;95.00;;;;;;5055411;28;20453;-92